sensor_id;sensor_type;location;lat;lon;timestamp;temperature;humidity
4010;DHT22;2019;48.200;11.548;2022-08-25T00:01:00;22.40;66.10
4010;DHT22;2019;48.200;11.548;2022-08-25T00:03:26;22.40;66.80
4010;DHT22;2019;48.200;11.548;2022-08-25T00:05:52;22.40;66.30
4010;DHT22;2019;48.200;11.548;2022-08-25T00:08:17;22.40;66.40
4010;DHT22;2019;48.200;11.548;2022-08-25T00:10:43;22.30;66.20
4010;DHT22;2019;48.200;11.548;2022-08-25T00:13:09;22.30;66.30
4010;DHT22;2019;48.200;11.548;2022-08-25T00:15:35;22.30;66.40
4010;DHT22;2019;48.200;11.548;2022-08-25T00:18:00;22.30;66.50
4010;DHT22;2019;48.200;11.548;2022-08-25T00:20:27;22.30;66.60
4010;DHT22;2019;48.200;11.548;2022-08-25T00:22:54;22.20;66.60
4010;DHT22;2019;48.200;11.548;2022-08-25T00:25:20;22.20;66.60
4010;DHT22;2019;48.200;11.548;2022-08-25T00:27:46;22.20;66.80
4010;DHT22;2019;48.200;11.548;2022-08-25T00:30:13;22.20;66.80
4010;DHT22;2019;48.200;11.548;2022-08-25T00:32:40;22.20;66.90
4010;DHT22;2019;48.200;11.548;2022-08-25T00:35:06;22.20;67.00
4010;DHT22;2019;48.200;11.548;2022-08-25T00:37:32;22.10;67.10
4010;DHT22;2019;48.200;11.548;2022-08-25T00:39:57;22.10;67.10
4010;DHT22;2019;48.200;11.548;2022-08-25T00:42:24;22.10;67.20
4010;DHT22;2019;48.200;11.548;2022-08-25T00:44:49;22.10;67.30
4010;DHT22;2019;48.200;11.548;2022-08-25T00:47:15;22.10;67.30
4010;DHT22;2019;48.200;11.548;2022-08-25T00:49:45;22.00;67.20
4010;DHT22;2019;48.200;11.548;2022-08-25T00:52:26;22.00;67.30
4010;DHT22;2019;48.200;11.548;2022-08-25T00:54:58;22.00;67.40
4010;DHT22;2019;48.200;11.548;2022-08-25T00:57:32;22.00;67.60
4010;DHT22;2019;48.200;11.548;2022-08-25T00:59:58;22.00;67.70
4010;DHT22;2019;48.200;11.548;2022-08-25T01:02:24;21.90;67.60
4010;DHT22;2019;48.200;11.548;2022-08-25T01:04:50;21.90;68.40
4010;DHT22;2019;48.200;11.548;2022-08-25T01:07:17;21.90;67.80
4010;DHT22;2019;48.200;11.548;2022-08-25T01:09:45;21.90;67.90
4010;DHT22;2019;48.200;11.548;2022-08-25T01:12:12;21.90;68.00
4010;DHT22;2019;48.200;11.548;2022-08-25T01:14:38;21.80;67.90
4010;DHT22;2019;48.200;11.548;2022-08-25T01:17:04;21.80;68.00
4010;DHT22;2019;48.200;11.548;2022-08-25T01:19:31;21.80;68.10
4010;DHT22;2019;48.200;11.548;2022-08-25T01:21:58;21.80;68.20
4010;DHT22;2019;48.200;11.548;2022-08-25T01:24:31;21.80;68.30
4010;DHT22;2019;48.200;11.548;2022-08-25T01:26:59;21.80;68.20
4010;DHT22;2019;48.200;11.548;2022-08-25T01:29:26;21.70;68.20
4010;DHT22;2019;48.200;11.548;2022-08-25T01:31:56;21.70;68.30
4010;DHT22;2019;48.200;11.548;2022-08-25T01:34:24;21.70;68.50
4010;DHT22;2019;48.200;11.548;2022-08-25T01:36:50;21.70;68.50
4010;DHT22;2019;48.200;11.548;2022-08-25T01:39:16;21.70;68.50
4010;DHT22;2019;48.200;11.548;2022-08-25T01:44:38;21.60;68.70
4010;DHT22;2019;48.200;11.548;2022-08-25T01:47:05;21.60;68.60
4010;DHT22;2019;48.200;11.548;2022-08-25T01:49:31;21.60;68.60
4010;DHT22;2019;48.200;11.548;2022-08-25T01:52:28;21.60;68.80
4010;DHT22;2019;48.200;11.548;2022-08-25T01:54:56;21.50;68.90
4010;DHT22;2019;48.200;11.548;2022-08-25T01:57:22;21.50;68.90
4010;DHT22;2019;48.200;11.548;2022-08-25T01:59:48;21.60;69.10
4010;DHT22;2019;48.200;11.548;2022-08-25T02:02:13;21.50;69.10
4010;DHT22;2019;48.200;11.548;2022-08-25T02:04:39;21.40;69.10
4010;DHT22;2019;48.200;11.548;2022-08-25T02:07:06;21.40;69.20
4010;DHT22;2019;48.200;11.548;2022-08-25T02:09:33;21.40;69.40
4010;DHT22;2019;48.200;11.548;2022-08-25T02:11:58;21.40;69.40
4010;DHT22;2019;48.200;11.548;2022-08-25T02:14:24;21.40;69.40
4010;DHT22;2019;48.200;11.548;2022-08-25T02:16:52;21.40;69.50
4010;DHT22;2019;48.200;11.548;2022-08-25T02:19:20;21.30;69.40
4010;DHT22;2019;48.200;11.548;2022-08-25T02:21:46;21.30;69.50
4010;DHT22;2019;48.200;11.548;2022-08-25T02:24:12;21.30;69.50
4010;DHT22;2019;48.200;11.548;2022-08-25T02:26:38;21.30;69.50
4010;DHT22;2019;48.200;11.548;2022-08-25T02:29:05;21.20;69.70
4010;DHT22;2019;48.200;11.548;2022-08-25T02:31:32;21.20;69.80
4010;DHT22;2019;48.200;11.548;2022-08-25T02:33:58;21.20;69.90
4010;DHT22;2019;48.200;11.548;2022-08-25T02:36:24;21.20;70.00
4010;DHT22;2019;48.200;11.548;2022-08-25T02:38:50;21.20;70.20
4010;DHT22;2019;48.200;11.548;2022-08-25T02:41:21;21.20;70.30
4010;DHT22;2019;48.200;11.548;2022-08-25T02:43:49;21.10;70.30
4010;DHT22;2019;48.200;11.548;2022-08-25T02:46:17;21.10;70.30
4010;DHT22;2019;48.200;11.548;2022-08-25T02:48:45;21.10;70.50
4010;DHT22;2019;48.200;11.548;2022-08-25T02:51:11;21.10;70.50
4010;DHT22;2019;48.200;11.548;2022-08-25T02:53:39;21.10;70.60
4010;DHT22;2019;48.200;11.548;2022-08-25T02:56:10;21.10;70.60
4010;DHT22;2019;48.200;11.548;2022-08-25T02:58:38;21.00;70.50
4010;DHT22;2019;48.200;11.548;2022-08-25T03:01:05;21.10;70.70
4010;DHT22;2019;48.200;11.548;2022-08-25T03:03:31;21.10;70.70
4010;DHT22;2019;48.200;11.548;2022-08-25T03:05:58;21.10;70.80
4010;DHT22;2019;48.200;11.548;2022-08-25T03:08:24;21.00;70.80
4010;DHT22;2019;48.200;11.548;2022-08-25T03:10:50;21.00;70.80
4010;DHT22;2019;48.200;11.548;2022-08-25T03:13:16;21.00;70.90
4010;DHT22;2019;48.200;11.548;2022-08-25T03:15:42;21.00;71.00
4010;DHT22;2019;48.200;11.548;2022-08-25T03:18:09;21.00;71.00
4010;DHT22;2019;48.200;11.548;2022-08-25T03:20:36;21.00;71.10
4010;DHT22;2019;48.200;11.548;2022-08-25T03:23:03;21.00;71.10
4010;DHT22;2019;48.200;11.548;2022-08-25T03:25:29;20.90;71.10
4010;DHT22;2019;48.200;11.548;2022-08-25T03:28:13;20.90;71.20
4010;DHT22;2019;48.200;11.548;2022-08-25T03:30:40;20.90;71.20
4010;DHT22;2019;48.200;11.548;2022-08-25T03:33:06;20.90;71.30
4010;DHT22;2019;48.200;11.548;2022-08-25T03:35:31;20.90;71.30
4010;DHT22;2019;48.200;11.548;2022-08-25T03:37:58;20.90;71.30
4010;DHT22;2019;48.200;11.548;2022-08-25T03:40:25;20.80;71.20
4010;DHT22;2019;48.200;11.548;2022-08-25T03:42:51;20.80;71.30
4010;DHT22;2019;48.200;11.548;2022-08-25T03:45:17;20.80;71.20
4010;DHT22;2019;48.200;11.548;2022-08-25T03:47:46;20.80;71.40
4010;DHT22;2019;48.200;11.548;2022-08-25T03:50:14;20.80;71.50
4010;DHT22;2019;48.200;11.548;2022-08-25T03:52:40;20.80;71.50
4010;DHT22;2019;48.200;11.548;2022-08-25T03:55:08;20.80;71.50
4010;DHT22;2019;48.200;11.548;2022-08-25T03:57:34;20.80;71.60
4010;DHT22;2019;48.200;11.548;2022-08-25T04:00:00;20.80;71.70
4010;DHT22;2019;48.200;11.548;2022-08-25T04:02:26;20.70;71.50
4010;DHT22;2019;48.200;11.548;2022-08-25T04:04:52;20.70;71.50
4010;DHT22;2019;48.200;11.548;2022-08-25T04:07:17;20.70;71.60
4010;DHT22;2019;48.200;11.548;2022-08-25T04:09:44;20.70;71.60
4010;DHT22;2019;48.200;11.548;2022-08-25T04:12:09;20.70;71.50
4010;DHT22;2019;48.200;11.548;2022-08-25T04:14:35;20.70;71.60
4010;DHT22;2019;48.200;11.548;2022-08-25T04:17:01;20.60;71.50
4010;DHT22;2019;48.200;11.548;2022-08-25T04:19:27;20.60;71.60
4010;DHT22;2019;48.200;11.548;2022-08-25T04:21:53;20.60;71.70
4010;DHT22;2019;48.200;11.548;2022-08-25T04:24:19;20.60;71.70
4010;DHT22;2019;48.200;11.548;2022-08-25T04:26:48;20.60;71.70
4010;DHT22;2019;48.200;11.548;2022-08-25T04:29:17;20.60;71.80
4010;DHT22;2019;48.200;11.548;2022-08-25T04:31:44;20.50;71.80
4010;DHT22;2019;48.200;11.548;2022-08-25T04:34:18;20.50;71.90
4010;DHT22;2019;48.200;11.548;2022-08-25T04:36:44;20.50;72.00
4010;DHT22;2019;48.200;11.548;2022-08-25T04:39:10;20.50;72.10
4010;DHT22;2019;48.200;11.548;2022-08-25T04:41:36;20.50;72.20
4010;DHT22;2019;48.200;11.548;2022-08-25T04:44:03;20.50;72.20
4010;DHT22;2019;48.200;11.548;2022-08-25T04:46:30;20.50;72.30
4010;DHT22;2019;48.200;11.548;2022-08-25T04:48:58;20.50;72.20
4010;DHT22;2019;48.200;11.548;2022-08-25T04:51:28;20.50;72.30
4010;DHT22;2019;48.200;11.548;2022-08-25T04:53:54;20.50;72.40
4010;DHT22;2019;48.200;11.548;2022-08-25T04:56:22;20.50;72.40
4010;DHT22;2019;48.200;11.548;2022-08-25T04:58:51;20.50;72.40
4010;DHT22;2019;48.200;11.548;2022-08-25T05:01:19;20.50;72.40
4010;DHT22;2019;48.200;11.548;2022-08-25T05:03:47;20.50;72.40
4010;DHT22;2019;48.200;11.548;2022-08-25T05:06:13;20.50;72.50
4010;DHT22;2019;48.200;11.548;2022-08-25T05:08:39;20.50;72.70
4010;DHT22;2019;48.200;11.548;2022-08-25T05:11:11;20.50;72.80
4010;DHT22;2019;48.200;11.548;2022-08-25T05:13:43;20.60;73.00
4010;DHT22;2019;48.200;11.548;2022-08-25T05:16:08;20.60;73.10
4010;DHT22;2019;48.200;11.548;2022-08-25T05:18:35;20.60;73.20
4010;DHT22;2019;48.200;11.548;2022-08-25T05:21:03;20.60;73.40
4010;DHT22;2019;48.200;11.548;2022-08-25T05:23:29;20.60;73.70
4010;DHT22;2019;48.200;11.548;2022-08-25T05:25:55;20.60;73.90
4010;DHT22;2019;48.200;11.548;2022-08-25T05:28:21;20.70;74.10
4010;DHT22;2019;48.200;11.548;2022-08-25T05:30:47;20.70;74.30
4010;DHT22;2019;48.200;11.548;2022-08-25T05:33:15;20.70;74.50
4010;DHT22;2019;48.200;11.548;2022-08-25T05:35:41;20.70;74.60
4010;DHT22;2019;48.200;11.548;2022-08-25T05:38:07;20.70;74.80
4010;DHT22;2019;48.200;11.548;2022-08-25T05:40:34;20.80;75.00
4010;DHT22;2019;48.200;11.548;2022-08-25T05:43:01;20.80;75.10
4010;DHT22;2019;48.200;11.548;2022-08-25T05:45:27;20.80;75.40
4010;DHT22;2019;48.200;11.548;2022-08-25T05:47:52;20.80;75.50
4010;DHT22;2019;48.200;11.548;2022-08-25T05:50:18;20.80;75.70
4010;DHT22;2019;48.200;11.548;2022-08-25T05:52:44;20.90;76.00
4010;DHT22;2019;48.200;11.548;2022-08-25T05:55:09;20.90;76.10
4010;DHT22;2019;48.200;11.548;2022-08-25T05:57:35;20.90;76.30
4010;DHT22;2019;48.200;11.548;2022-08-25T06:00:03;20.90;76.40
4010;DHT22;2019;48.200;11.548;2022-08-25T06:02:29;21.00;76.50
4010;DHT22;2019;48.200;11.548;2022-08-25T06:05:18;21.00;76.70
4010;DHT22;2019;48.200;11.548;2022-08-25T06:07:45;21.10;76.90
4010;DHT22;2019;48.200;11.548;2022-08-25T06:10:12;21.10;77.00
4010;DHT22;2019;48.200;11.548;2022-08-25T06:12:40;21.10;77.10
4010;DHT22;2019;48.200;11.548;2022-08-25T06:15:09;21.20;77.20
4010;DHT22;2019;48.200;11.548;2022-08-25T06:17:35;21.20;77.20
4010;DHT22;2019;48.200;11.548;2022-08-25T06:20:09;21.20;77.30
4010;DHT22;2019;48.200;11.548;2022-08-25T06:22:35;21.30;77.40
4010;DHT22;2019;48.200;11.548;2022-08-25T06:25:03;21.30;77.30
4010;DHT22;2019;48.200;11.548;2022-08-25T06:27:29;21.30;77.20
4010;DHT22;2019;48.200;11.548;2022-08-25T06:29:54;21.40;77.40
4010;DHT22;2019;48.200;11.548;2022-08-25T06:32:20;21.40;77.40
4010;DHT22;2019;48.200;11.548;2022-08-25T06:34:45;21.50;77.50
4010;DHT22;2019;48.200;11.548;2022-08-25T06:37:11;21.50;77.60
4010;DHT22;2019;48.200;11.548;2022-08-25T06:39:36;21.50;77.50
4010;DHT22;2019;48.200;11.548;2022-08-25T06:42:02;21.60;77.40
4010;DHT22;2019;48.200;11.548;2022-08-25T06:44:28;21.60;77.40
4010;DHT22;2019;48.200;11.548;2022-08-25T06:46:53;21.70;77.60
4010;DHT22;2019;48.200;11.548;2022-08-25T06:49:20;21.70;77.50
4010;DHT22;2019;48.200;11.548;2022-08-25T06:51:46;21.80;77.30
4010;DHT22;2019;48.200;11.548;2022-08-25T06:54:11;21.80;77.30
4010;DHT22;2019;48.200;11.548;2022-08-25T06:56:39;21.90;77.50
4010;DHT22;2019;48.200;11.548;2022-08-25T06:59:07;22.00;77.60
4010;DHT22;2019;48.200;11.548;2022-08-25T07:01:33;22.00;77.60
4010;DHT22;2019;48.200;11.548;2022-08-25T07:04:00;22.10;77.50
4010;DHT22;2019;48.200;11.548;2022-08-25T07:06:28;22.20;77.50
4010;DHT22;2019;48.200;11.548;2022-08-25T07:08:56;22.30;77.30
4010;DHT22;2019;48.200;11.548;2022-08-25T07:11:22;22.30;77.10
4010;DHT22;2019;48.200;11.548;2022-08-25T07:13:49;22.40;76.80
4010;DHT22;2019;48.200;11.548;2022-08-25T07:16:16;22.40;76.70
4010;DHT22;2019;48.200;11.548;2022-08-25T07:18:43;22.50;76.70
4010;DHT22;2019;48.200;11.548;2022-08-25T07:21:10;22.60;76.80
4010;DHT22;2019;48.200;11.548;2022-08-25T07:23:37;22.60;76.50
4010;DHT22;2019;48.200;11.548;2022-08-25T07:26:19;22.70;76.00
4010;DHT22;2019;48.200;11.548;2022-08-25T07:28:45;22.80;75.70
4010;DHT22;2019;48.200;11.548;2022-08-25T07:31:11;22.90;76.30
4010;DHT22;2019;48.200;11.548;2022-08-25T07:33:37;22.90;75.70
4010;DHT22;2019;48.200;11.548;2022-08-25T07:36:03;23.00;75.50
4010;DHT22;2019;48.200;11.548;2022-08-25T07:38:28;23.00;75.50
4010;DHT22;2019;48.200;11.548;2022-08-25T07:41:01;23.20;76.10
4010;DHT22;2019;48.200;11.548;2022-08-25T07:43:27;23.30;75.00
4010;DHT22;2019;48.200;11.548;2022-08-25T07:45:53;23.30;74.70
4010;DHT22;2019;48.200;11.548;2022-08-25T07:48:18;23.40;74.90
4010;DHT22;2019;48.200;11.548;2022-08-25T07:50:46;23.50;75.00
4010;DHT22;2019;48.200;11.548;2022-08-25T07:53:14;23.60;74.50
4010;DHT22;2019;48.200;11.548;2022-08-25T07:55:41;23.70;74.20
4010;DHT22;2019;48.200;11.548;2022-08-25T07:58:07;23.70;74.30
4010;DHT22;2019;48.200;11.548;2022-08-25T08:00:34;23.80;74.00
4010;DHT22;2019;48.200;11.548;2022-08-25T08:03:06;23.90;74.10
4010;DHT22;2019;48.200;11.548;2022-08-25T08:05:32;24.00;73.80
4010;DHT22;2019;48.200;11.548;2022-08-25T08:07:59;24.10;73.70
4010;DHT22;2019;48.200;11.548;2022-08-25T08:10:25;24.20;73.20
4010;DHT22;2019;48.200;11.548;2022-08-25T08:12:51;24.30;72.80
4010;DHT22;2019;48.200;11.548;2022-08-25T08:15:17;24.30;72.80
4010;DHT22;2019;48.200;11.548;2022-08-25T08:17:44;24.40;72.50
4010;DHT22;2019;48.200;11.548;2022-08-25T08:20:10;24.50;72.30
4010;DHT22;2019;48.200;11.548;2022-08-25T08:22:38;24.60;72.40
4010;DHT22;2019;48.200;11.548;2022-08-25T08:25:06;24.60;71.80
4010;DHT22;2019;48.200;11.548;2022-08-25T08:27:32;24.70;71.00
4010;DHT22;2019;48.200;11.548;2022-08-25T08:29:57;24.80;71.50
4010;DHT22;2019;48.200;11.548;2022-08-25T08:32:23;24.80;71.00
4010;DHT22;2019;48.200;11.548;2022-08-25T08:34:48;24.90;70.60
4010;DHT22;2019;48.200;11.548;2022-08-25T08:37:15;25.00;70.60
4010;DHT22;2019;48.200;11.548;2022-08-25T08:39:40;25.00;70.50
4010;DHT22;2019;48.200;11.548;2022-08-25T08:45:03;25.20;70.00
4010;DHT22;2019;48.200;11.548;2022-08-25T08:55:51;25.60;69.50
4010;DHT22;2019;48.200;11.548;2022-08-25T08:58:34;25.70;69.80
4010;DHT22;2019;48.200;11.548;2022-08-25T09:01:02;25.80;69.70
4010;DHT22;2019;48.200;11.548;2022-08-25T09:03:34;25.90;69.30
4010;DHT22;2019;48.200;11.548;2022-08-25T09:06:06;26.00;68.30
4010;DHT22;2019;48.200;11.548;2022-08-25T09:08:33;26.10;68.60
4010;DHT22;2019;48.200;11.548;2022-08-25T09:22:14;26.40;66.90
4010;DHT22;2019;48.200;11.548;2022-08-25T09:25:14;26.50;66.40
4010;DHT22;2019;48.200;11.548;2022-08-25T09:30:27;26.70;66.80
4010;DHT22;2019;48.200;11.548;2022-08-25T09:32:58;26.70;66.30
4010;DHT22;2019;48.200;11.548;2022-08-25T09:35:32;26.90;65.50
4010;DHT22;2019;48.200;11.548;2022-08-25T09:38:09;26.90;65.50
4010;DHT22;2019;48.200;11.548;2022-08-25T09:40:38;27.00;65.30
4010;DHT22;2019;48.200;11.548;2022-08-25T09:43:19;27.10;64.70
4010;DHT22;2019;48.200;11.548;2022-08-25T09:45:48;27.10;65.20
4010;DHT22;2019;48.200;11.548;2022-08-25T09:48:23;27.10;65.20
4010;DHT22;2019;48.200;11.548;2022-08-25T09:50:53;27.20;65.50
4010;DHT22;2019;48.200;11.548;2022-08-25T09:53:22;27.30;65.00
4010;DHT22;2019;48.200;11.548;2022-08-25T09:55:55;27.40;64.50
4010;DHT22;2019;48.200;11.548;2022-08-25T09:58:23;27.50;64.10
4010;DHT22;2019;48.200;11.548;2022-08-25T10:01:02;27.50;63.40
4010;DHT22;2019;48.200;11.548;2022-08-25T10:03:28;27.60;63.60
4010;DHT22;2019;48.200;11.548;2022-08-25T10:08:39;27.90;63.60
4010;DHT22;2019;48.200;11.548;2022-08-25T10:11:11;28.00;63.50
4010;DHT22;2019;48.200;11.548;2022-08-25T10:13:41;28.10;63.10
4010;DHT22;2019;48.200;11.548;2022-08-25T10:16:20;28.20;62.50
4010;DHT22;2019;48.200;11.548;2022-08-25T10:21:25;28.40;61.90
4010;DHT22;2019;48.200;11.548;2022-08-25T10:23:52;28.40;62.00
4010;DHT22;2019;48.200;11.548;2022-08-25T10:31:43;28.80;60.10
4010;DHT22;2019;48.200;11.548;2022-08-25T10:34:17;28.90;60.10
4010;DHT22;2019;48.200;11.548;2022-08-25T10:39:43;29.00;59.80
4010;DHT22;2019;48.200;11.548;2022-08-25T10:42:18;29.10;59.80
4010;DHT22;2019;48.200;11.548;2022-08-25T10:50:34;29.10;59.50
4010;DHT22;2019;48.200;11.548;2022-08-25T10:55:59;29.20;59.20
4010;DHT22;2019;48.200;11.548;2022-08-25T11:03:58;29.50;58.30
4010;DHT22;2019;48.200;11.548;2022-08-25T11:06:39;29.60;58.70
4010;DHT22;2019;48.200;11.548;2022-08-25T11:09:11;29.70;58.50
4010;DHT22;2019;48.200;11.548;2022-08-25T11:11:48;29.90;58.60
4010;DHT22;2019;48.200;11.548;2022-08-25T11:14:48;30.00;58.50
4010;DHT22;2019;48.200;11.548;2022-08-25T11:17:55;30.20;58.40
4010;DHT22;2019;48.200;11.548;2022-08-25T11:20:20;30.30;57.00
4010;DHT22;2019;48.200;11.548;2022-08-25T11:23:10;30.50;57.00
4010;DHT22;2019;48.200;11.548;2022-08-25T11:25:44;30.70;57.60
4010;DHT22;2019;48.200;11.548;2022-08-25T11:28:21;30.90;57.90
4010;DHT22;2019;48.200;11.548;2022-08-25T11:30:50;31.00;55.90
4010;DHT22;2019;48.200;11.548;2022-08-25T11:33:17;31.10;55.70
4010;DHT22;2019;48.200;11.548;2022-08-25T11:35:51;31.20;55.40
4010;DHT22;2019;48.200;11.548;2022-08-25T11:47:28;31.30;55.00
4010;DHT22;2019;48.200;11.548;2022-08-25T11:50:22;31.20;54.20
4010;DHT22;2019;48.200;11.548;2022-08-25T11:52:54;31.10;54.10
4010;DHT22;2019;48.200;11.548;2022-08-25T11:55:48;31.10;54.20
4010;DHT22;2019;48.200;11.548;2022-08-25T11:58:46;31.00;53.80
4010;DHT22;2019;48.200;11.548;2022-08-25T12:04:36;31.00;54.50
4010;DHT22;2019;48.200;11.548;2022-08-25T12:09:32;31.30;54.30
4010;DHT22;2019;48.200;11.548;2022-08-25T12:11:58;31.30;53.40
4010;DHT22;2019;48.200;11.548;2022-08-25T12:14:44;31.20;53.50
4010;DHT22;2019;48.200;11.548;2022-08-25T12:17:25;31.30;54.00
4010;DHT22;2019;48.200;11.548;2022-08-25T12:19:54;31.30;53.20
4010;DHT22;2019;48.200;11.548;2022-08-25T12:25:03;31.30;53.10
4010;DHT22;2019;48.200;11.548;2022-08-25T12:27:54;31.40;53.40
4010;DHT22;2019;48.200;11.548;2022-08-25T12:30:37;31.50;52.20
4010;DHT22;2019;48.200;11.548;2022-08-25T12:33:25;31.50;52.50
4010;DHT22;2019;48.200;11.548;2022-08-25T12:36:07;31.50;51.80
4010;DHT22;2019;48.200;11.548;2022-08-25T12:38:48;31.50;52.00
4010;DHT22;2019;48.200;11.548;2022-08-25T12:41:20;31.60;51.80
4010;DHT22;2019;48.200;11.548;2022-08-25T12:43:51;31.70;52.30
4010;DHT22;2019;48.200;11.548;2022-08-25T12:54:45;32.00;50.80
4010;DHT22;2019;48.200;11.548;2022-08-25T12:59:50;32.10;50.40
4010;DHT22;2019;48.200;11.548;2022-08-25T13:05:34;32.20;49.90
4010;DHT22;2019;48.200;11.548;2022-08-25T13:10:45;32.10;49.90
4010;DHT22;2019;48.200;11.548;2022-08-25T13:16:03;32.20;49.80
4010;DHT22;2019;48.200;11.548;2022-08-25T13:18:33;32.30;49.80
4010;DHT22;2019;48.200;11.548;2022-08-25T13:23:35;32.30;49.90
4010;DHT22;2019;48.200;11.548;2022-08-25T13:26:02;32.40;49.70
4010;DHT22;2019;48.200;11.548;2022-08-25T13:28:34;32.40;49.80
4010;DHT22;2019;48.200;11.548;2022-08-25T13:31:08;32.50;49.40
4010;DHT22;2019;48.200;11.548;2022-08-25T13:33:38;32.50;49.20
4010;DHT22;2019;48.200;11.548;2022-08-25T13:36:04;32.50;49.30
4010;DHT22;2019;48.200;11.548;2022-08-25T13:38:49;32.60;49.20
4010;DHT22;2019;48.200;11.548;2022-08-25T13:41:21;32.60;49.00
4010;DHT22;2019;48.200;11.548;2022-08-25T13:43:48;32.60;48.20
4010;DHT22;2019;48.200;11.548;2022-08-25T13:46:19;32.50;48.60
4010;DHT22;2019;48.200;11.548;2022-08-25T13:48:45;32.60;49.20
4010;DHT22;2019;48.200;11.548;2022-08-25T13:51:23;32.60;48.60
4010;DHT22;2019;48.200;11.548;2022-08-25T13:53:57;32.70;47.80
4010;DHT22;2019;48.200;11.548;2022-08-25T13:56:25;32.70;48.20
4010;DHT22;2019;48.200;11.548;2022-08-25T13:58:52;32.80;47.60
4010;DHT22;2019;48.200;11.548;2022-08-25T14:01:24;32.80;47.30
4010;DHT22;2019;48.200;11.548;2022-08-25T14:03:52;32.90;46.80
4010;DHT22;2019;48.200;11.548;2022-08-25T14:06:23;32.90;46.70
4010;DHT22;2019;48.200;11.548;2022-08-25T14:13:59;32.90;47.00
4010;DHT22;2019;48.200;11.548;2022-08-25T14:16:25;33.00;46.60
4010;DHT22;2019;48.200;11.548;2022-08-25T14:18:56;32.90;46.10
4010;DHT22;2019;48.200;11.548;2022-08-25T14:21:28;32.90;46.30
4010;DHT22;2019;48.200;11.548;2022-08-25T14:23:55;32.80;46.30
4010;DHT22;2019;48.200;11.548;2022-08-25T14:26:22;32.70;46.40
4010;DHT22;2019;48.200;11.548;2022-08-25T14:28:48;32.60;46.80
4010;DHT22;2019;48.200;11.548;2022-08-25T14:31:25;32.60;46.80
4010;DHT22;2019;48.200;11.548;2022-08-25T14:34:08;32.50;47.00
4010;DHT22;2019;48.200;11.548;2022-08-25T14:36:35;32.50;47.60
4010;DHT22;2019;48.200;11.548;2022-08-25T14:39:02;32.50;47.60
4010;DHT22;2019;48.200;11.548;2022-08-25T14:41:32;32.50;47.90
4010;DHT22;2019;48.200;11.548;2022-08-25T14:43:59;32.40;47.90
4010;DHT22;2019;48.200;11.548;2022-08-25T14:46:27;32.40;47.50
4010;DHT22;2019;48.200;11.548;2022-08-25T14:48:57;32.30;47.60
4010;DHT22;2019;48.200;11.548;2022-08-25T14:51:25;32.30;47.30
4010;DHT22;2019;48.200;11.548;2022-08-25T14:53:52;32.30;47.60
4010;DHT22;2019;48.200;11.548;2022-08-25T14:56:19;32.30;47.40
4010;DHT22;2019;48.200;11.548;2022-08-25T14:58:44;32.30;47.20
4010;DHT22;2019;48.200;11.548;2022-08-25T15:01:15;32.30;47.30
4010;DHT22;2019;48.200;11.548;2022-08-25T15:03:44;32.20;47.40
4010;DHT22;2019;48.200;11.548;2022-08-25T15:06:12;32.20;47.50
4010;DHT22;2019;48.200;11.548;2022-08-25T15:08:38;32.20;48.00
4010;DHT22;2019;48.200;11.548;2022-08-25T15:11:22;32.10;47.70
4010;DHT22;2019;48.200;11.548;2022-08-25T15:13:48;32.00;47.60
4010;DHT22;2019;48.200;11.548;2022-08-25T15:18:51;31.90;47.80
4010;DHT22;2019;48.200;11.548;2022-08-25T15:21:17;31.80;48.10
4010;DHT22;2019;48.200;11.548;2022-08-25T15:23:43;31.90;48.50
4010;DHT22;2019;48.200;11.548;2022-08-25T15:26:10;31.90;48.60
4010;DHT22;2019;48.200;11.548;2022-08-25T15:28:42;31.90;48.70
4010;DHT22;2019;48.200;11.548;2022-08-25T15:31:09;31.90;48.70
4010;DHT22;2019;48.200;11.548;2022-08-25T15:33:36;31.80;48.40
4010;DHT22;2019;48.200;11.548;2022-08-25T15:36:04;31.80;48.10
4010;DHT22;2019;48.200;11.548;2022-08-25T15:38:30;31.80;48.10
4010;DHT22;2019;48.200;11.548;2022-08-25T15:40:55;31.70;47.60
4010;DHT22;2019;48.200;11.548;2022-08-25T15:43:21;31.80;48.00
4010;DHT22;2019;48.200;11.548;2022-08-25T15:45:47;31.70;47.70
4010;DHT22;2019;48.200;11.548;2022-08-25T15:48:13;31.80;47.70
4010;DHT22;2019;48.200;11.548;2022-08-25T15:50:39;31.70;47.50
4010;DHT22;2019;48.200;11.548;2022-08-25T15:53:05;31.80;47.90
4010;DHT22;2019;48.200;11.548;2022-08-25T15:55:30;31.70;47.60
4010;DHT22;2019;48.200;11.548;2022-08-25T15:57:56;31.70;47.60
4010;DHT22;2019;48.200;11.548;2022-08-25T16:00:22;31.60;47.30
4010;DHT22;2019;48.200;11.548;2022-08-25T16:02:47;31.60;47.40
4010;DHT22;2019;48.200;11.548;2022-08-25T16:05:14;31.50;47.60
4010;DHT22;2019;48.200;11.548;2022-08-25T16:07:40;31.50;47.40
4010;DHT22;2019;48.200;11.548;2022-08-25T16:10:06;31.40;47.30
4010;DHT22;2019;48.200;11.548;2022-08-25T16:12:31;31.40;47.40
4010;DHT22;2019;48.200;11.548;2022-08-25T16:14:57;31.30;47.50
4010;DHT22;2019;48.200;11.548;2022-08-25T16:17:23;31.30;47.20
4010;DHT22;2019;48.200;11.548;2022-08-25T16:19:48;31.30;47.40
4010;DHT22;2019;48.200;11.548;2022-08-25T16:22:14;31.30;47.70
4010;DHT22;2019;48.200;11.548;2022-08-25T16:24:41;31.30;47.80
4010;DHT22;2019;48.200;11.548;2022-08-25T16:27:09;31.30;47.40
4010;DHT22;2019;48.200;11.548;2022-08-25T16:29:36;31.30;47.00
4010;DHT22;2019;48.200;11.548;2022-08-25T16:32:04;31.30;46.90
4010;DHT22;2019;48.200;11.548;2022-08-25T16:34:30;31.30;46.90
4010;DHT22;2019;48.200;11.548;2022-08-25T16:36:56;31.20;46.80
4010;DHT22;2019;48.200;11.548;2022-08-25T16:39:22;31.20;47.10
4010;DHT22;2019;48.200;11.548;2022-08-25T16:41:48;31.10;47.20
4010;DHT22;2019;48.200;11.548;2022-08-25T16:44:14;31.00;47.00
4010;DHT22;2019;48.200;11.548;2022-08-25T16:46:40;30.90;47.80
4010;DHT22;2019;48.200;11.548;2022-08-25T16:49:08;30.80;48.10
4010;DHT22;2019;48.200;11.548;2022-08-25T16:51:36;30.70;49.00
4010;DHT22;2019;48.200;11.548;2022-08-25T16:54:02;30.60;48.60
4010;DHT22;2019;48.200;11.548;2022-08-25T16:56:47;30.50;48.90
4010;DHT22;2019;48.200;11.548;2022-08-25T16:59:12;30.40;49.20
4010;DHT22;2019;48.200;11.548;2022-08-25T17:01:39;30.30;49.60
4010;DHT22;2019;48.200;11.548;2022-08-25T17:04:06;30.20;49.90
4010;DHT22;2019;48.200;11.548;2022-08-25T17:06:35;30.20;50.30
4010;DHT22;2019;48.200;11.548;2022-08-25T17:09:01;30.00;50.40
4010;DHT22;2019;48.200;11.548;2022-08-25T17:11:32;29.90;50.60
4010;DHT22;2019;48.200;11.548;2022-08-25T17:14:00;29.90;51.00
4010;DHT22;2019;48.200;11.548;2022-08-25T17:16:30;29.80;51.00
4010;DHT22;2019;48.200;11.548;2022-08-25T17:18:57;29.80;51.20
4010;DHT22;2019;48.200;11.548;2022-08-25T17:21:24;29.70;51.20
4010;DHT22;2019;48.200;11.548;2022-08-25T17:23:54;29.60;51.20
4010;DHT22;2019;48.200;11.548;2022-08-25T17:26:23;29.50;51.30
4010;DHT22;2019;48.200;11.548;2022-08-25T17:28:50;29.50;51.50
4010;DHT22;2019;48.200;11.548;2022-08-25T17:31:16;29.40;51.70
4010;DHT22;2019;48.200;11.548;2022-08-25T17:33:43;29.30;51.80
4010;DHT22;2019;48.200;11.548;2022-08-25T17:36:09;29.30;52.00
4010;DHT22;2019;48.200;11.548;2022-08-25T17:38:35;29.20;52.20